sensor_id;sensor_type;location;lat;lon;timestamp;pressure;altitude;pressure_sealevel;temperature
34807;BMP180;18310;55.586;12.286;2023-02-04T00:01:57;102737.00;;;8.70
34807;BMP180;18310;55.586;12.286;2023-02-04T00:05:00;102744.00;;;8.70
34807;BMP180;18310;55.586;12.286;2023-02-04T00:08:05;102745.00;;;8.60
34807;BMP180;18310;55.586;12.286;2023-02-04T00:11:08;102755.00;;;8.60
34807;BMP180;18310;55.586;12.286;2023-02-04T00:14:15;102762.00;;;8.60
34807;BMP180;18310;55.586;12.286;2023-02-04T00:17:25;102769.00;;;8.60
34807;BMP180;18310;55.586;12.286;2023-02-04T00:20:31;102763.00;;;8.60
34807;BMP180;18310;55.586;12.286;2023-02-04T00:23:36;102772.00;;;8.50
34807;BMP180;18310;55.586;12.286;2023-02-04T00:26:43;102777.00;;;8.50
34807;BMP180;18310;55.586;12.286;2023-02-04T00:29:48;102791.00;;;8.50
34807;BMP180;18310;55.586;12.286;2023-02-04T00:32:55;102798.00;;;8.50
34807;BMP180;18310;55.586;12.286;2023-02-04T00:35:58;102804.00;;;8.50
34807;BMP180;18310;55.586;12.286;2023-02-04T00:39:02;102815.00;;;8.40
34807;BMP180;18310;55.586;12.286;2023-02-04T00:42:06;102822.00;;;8.40
34807;BMP180;18310;55.586;12.286;2023-02-04T00:45:11;102824.00;;;8.30
34807;BMP180;18310;55.586;12.286;2023-02-04T00:48:16;102839.00;;;8.30
34807;BMP180;18310;55.586;12.286;2023-02-04T00:51:19;102841.00;;;8.30
34807;BMP180;18310;55.586;12.286;2023-02-04T00:54:22;102849.00;;;8.30
34807;BMP180;18310;55.586;12.286;2023-02-04T00:57:26;102851.00;;;8.30
34807;BMP180;18310;55.586;12.286;2023-02-04T01:00:29;102862.00;;;8.30
34807;BMP180;18310;55.586;12.286;2023-02-04T01:03:35;102859.00;;;8.30
34807;BMP180;18310;55.586;12.286;2023-02-04T01:06:38;102872.00;;;8.30
34807;BMP180;18310;55.586;12.286;2023-02-04T01:09:41;102885.00;;;8.30
34807;BMP180;18310;55.586;12.286;2023-02-04T01:12:46;102898.00;;;8.20
34807;BMP180;18310;55.586;12.286;2023-02-04T01:15:49;102899.00;;;8.20
34807;BMP180;18310;55.586;12.286;2023-02-04T01:18:54;102908.00;;;8.20
34807;BMP180;18310;55.586;12.286;2023-02-04T01:21:58;102924.00;;;8.20
34807;BMP180;18310;55.586;12.286;2023-02-04T01:25:01;102936.00;;;8.10
34807;BMP180;18310;55.586;12.286;2023-02-04T01:28:05;102929.00;;;8.00
34807;BMP180;18310;55.586;12.286;2023-02-04T01:31:09;102941.00;;;8.00
34807;BMP180;18310;55.586;12.286;2023-02-04T01:34:13;102946.00;;;7.90
34807;BMP180;18310;55.586;12.286;2023-02-04T01:37:18;102952.00;;;7.70
34807;BMP180;18310;55.586;12.286;2023-02-04T01:40:27;102962.00;;;7.60
34807;BMP180;18310;55.586;12.286;2023-02-04T01:43:35;102961.00;;;7.50
34807;BMP180;18310;55.586;12.286;2023-02-04T01:46:44;102979.00;;;7.60
34807;BMP180;18310;55.586;12.286;2023-02-04T01:49:54;102979.00;;;7.80
34807;BMP180;18310;55.586;12.286;2023-02-04T01:52:59;102990.00;;;7.70
34807;BMP180;18310;55.586;12.286;2023-02-04T01:56:05;102995.00;;;7.50
34807;BMP180;18310;55.586;12.286;2023-02-04T01:59:15;102998.00;;;7.40
34807;BMP180;18310;55.586;12.286;2023-02-04T02:02:42;103009.00;;;7.40
34807;BMP180;18310;55.586;12.286;2023-02-04T02:05:49;103016.00;;;7.20
34807;BMP180;18310;55.586;12.286;2023-02-04T02:08:53;103025.00;;;7.20
34807;BMP180;18310;55.586;12.286;2023-02-04T02:11:57;103021.00;;;7.10
34807;BMP180;18310;55.586;12.286;2023-02-04T02:15:02;103024.00;;;7.00
34807;BMP180;18310;55.586;12.286;2023-02-04T02:18:07;103034.00;;;7.10
34807;BMP180;18310;55.586;12.286;2023-02-04T02:21:19;103047.00;;;7.20
34807;BMP180;18310;55.586;12.286;2023-02-04T02:24:27;103053.00;;;7.30
34807;BMP180;18310;55.586;12.286;2023-02-04T02:27:32;103065.00;;;7.10
34807;BMP180;18310;55.586;12.286;2023-02-04T02:30:37;103077.00;;;7.00
34807;BMP180;18310;55.586;12.286;2023-02-04T02:33:41;103080.00;;;7.00
34807;BMP180;18310;55.586;12.286;2023-02-04T02:36:45;103086.00;;;6.90
34807;BMP180;18310;55.586;12.286;2023-02-04T02:39:49;103090.00;;;6.90
34807;BMP180;18310;55.586;12.286;2023-02-04T02:42:54;103094.00;;;6.80
34807;BMP180;18310;55.586;12.286;2023-02-04T02:45:59;103106.00;;;6.80
34807;BMP180;18310;55.586;12.286;2023-02-04T02:49:03;103111.00;;;6.80
34807;BMP180;18310;55.586;12.286;2023-02-04T02:52:10;103106.00;;;6.90
34807;BMP180;18310;55.586;12.286;2023-02-04T02:55:18;103108.00;;;7.10
34807;BMP180;18310;55.586;12.286;2023-02-04T02:58:28;103123.00;;;7.20
34807;BMP180;18310;55.586;12.286;2023-02-04T03:01:33;103121.00;;;7.30
34807;BMP180;18310;55.586;12.286;2023-02-04T03:04:42;103129.00;;;7.30
34807;BMP180;18310;55.586;12.286;2023-02-04T03:07:46;103131.00;;;7.30
34807;BMP180;18310;55.586;12.286;2023-02-04T03:10:51;103147.00;;;7.30
34807;BMP180;18310;55.586;12.286;2023-02-04T03:13:56;103146.00;;;7.30
34807;BMP180;18310;55.586;12.286;2023-02-04T03:17:03;103161.00;;;7.30
34807;BMP180;18310;55.586;12.286;2023-02-04T03:20:08;103179.00;;;7.40
34807;BMP180;18310;55.586;12.286;2023-02-04T03:23:12;103177.00;;;7.40
34807;BMP180;18310;55.586;12.286;2023-02-04T03:26:16;103185.00;;;7.40
34807;BMP180;18310;55.586;12.286;2023-02-04T03:29:20;103192.00;;;7.40
34807;BMP180;18310;55.586;12.286;2023-02-04T03:32:24;103206.00;;;7.40
34807;BMP180;18310;55.586;12.286;2023-02-04T03:35:27;103200.00;;;7.20
34807;BMP180;18310;55.586;12.286;2023-02-04T03:38:31;103209.00;;;7.30
34807;BMP180;18310;55.586;12.286;2023-02-04T03:41:39;103214.00;;;7.20
34807;BMP180;18310;55.586;12.286;2023-02-04T03:44:42;103219.00;;;7.20
34807;BMP180;18310;55.586;12.286;2023-02-04T03:47:47;103222.00;;;7.20
34807;BMP180;18310;55.586;12.286;2023-02-04T03:50:50;103229.00;;;7.20
34807;BMP180;18310;55.586;12.286;2023-02-04T03:53:54;103243.00;;;7.10
34807;BMP180;18310;55.586;12.286;2023-02-04T03:56:58;103252.00;;;6.90
34807;BMP180;18310;55.586;12.286;2023-02-04T04:00:03;103253.00;;;6.80
34807;BMP180;18310;55.586;12.286;2023-02-04T04:03:10;103257.00;;;6.80
34807;BMP180;18310;55.586;12.286;2023-02-04T04:06:13;103263.00;;;6.70
34807;BMP180;18310;55.586;12.286;2023-02-04T04:09:17;103266.00;;;6.90
34807;BMP180;18310;55.586;12.286;2023-02-04T04:12:21;103275.00;;;6.80
34807;BMP180;18310;55.586;12.286;2023-02-04T04:15:25;103279.00;;;6.40
34807;BMP180;18310;55.586;12.286;2023-02-04T04:18:28;103279.00;;;6.30
34807;BMP180;18310;55.586;12.286;2023-02-04T04:21:32;103291.00;;;6.20
34807;BMP180;18310;55.586;12.286;2023-02-04T04:24:35;103289.00;;;6.20
34807;BMP180;18310;55.586;12.286;2023-02-04T04:27:40;103301.00;;;6.30
34807;BMP180;18310;55.586;12.286;2023-02-04T04:30:43;103305.00;;;6.50
34807;BMP180;18310;55.586;12.286;2023-02-04T04:33:48;103313.00;;;6.50
34807;BMP180;18310;55.586;12.286;2023-02-04T04:36:52;103319.00;;;6.30
34807;BMP180;18310;55.586;12.286;2023-02-04T04:39:56;103319.00;;;6.20
34807;BMP180;18310;55.586;12.286;2023-02-04T04:43:03;103333.00;;;6.20
34807;BMP180;18310;55.586;12.286;2023-02-04T04:46:07;103339.00;;;6.10
34807;BMP180;18310;55.586;12.286;2023-02-04T04:49:10;103350.00;;;6.00
34807;BMP180;18310;55.586;12.286;2023-02-04T04:52:14;103352.00;;;6.10
34807;BMP180;18310;55.586;12.286;2023-02-04T04:55:18;103357.00;;;6.00
34807;BMP180;18310;55.586;12.286;2023-02-04T04:58:23;103364.00;;;6.00
34807;BMP180;18310;55.586;12.286;2023-02-04T05:01:26;103379.00;;;6.00
34807;BMP180;18310;55.586;12.286;2023-02-04T05:04:30;103382.00;;;6.00
34807;BMP180;18310;55.586;12.286;2023-02-04T05:07:33;103376.00;;;6.00
34807;BMP180;18310;55.586;12.286;2023-02-04T05:10:37;103386.00;;;6.00
34807;BMP180;18310;55.586;12.286;2023-02-04T05:13:42;103387.00;;;5.90
34807;BMP180;18310;55.586;12.286;2023-02-04T05:16:46;103391.00;;;5.90
34807;BMP180;18310;55.586;12.286;2023-02-04T05:19:50;103404.00;;;5.90
34807;BMP180;18310;55.586;12.286;2023-02-04T05:22:53;103399.00;;;5.90
34807;BMP180;18310;55.586;12.286;2023-02-04T05:25:57;103400.00;;;5.80
34807;BMP180;18310;55.586;12.286;2023-02-04T05:29:02;103408.00;;;5.80
34807;BMP180;18310;55.586;12.286;2023-02-04T05:32:05;103399.00;;;5.80
34807;BMP180;18310;55.586;12.286;2023-02-04T05:35:09;103414.00;;;5.80
34807;BMP180;18310;55.586;12.286;2023-02-04T05:38:12;103415.00;;;5.80
34807;BMP180;18310;55.586;12.286;2023-02-04T05:41:16;103412.00;;;5.70
34807;BMP180;18310;55.586;12.286;2023-02-04T05:44:21;103417.00;;;5.70
34807;BMP180;18310;55.586;12.286;2023-02-04T05:47:25;103422.00;;;5.70
34807;BMP180;18310;55.586;12.286;2023-02-04T05:50:29;103415.00;;;5.60
34807;BMP180;18310;55.586;12.286;2023-02-04T05:53:33;103422.00;;;5.60
34807;BMP180;18310;55.586;12.286;2023-02-04T05:56:36;103420.00;;;5.60
34807;BMP180;18310;55.586;12.286;2023-02-04T05:59:41;103437.00;;;5.60
34807;BMP180;18310;55.586;12.286;2023-02-04T06:02:45;103443.00;;;5.60
34807;BMP180;18310;55.586;12.286;2023-02-04T06:05:48;103451.00;;;5.50
34807;BMP180;18310;55.586;12.286;2023-02-04T06:08:51;103450.00;;;5.40
34807;BMP180;18310;55.586;12.286;2023-02-04T06:11:55;103457.00;;;5.30
34807;BMP180;18310;55.586;12.286;2023-02-04T06:15:00;103461.00;;;5.30
34807;BMP180;18310;55.586;12.286;2023-02-04T06:18:04;103467.00;;;5.30
34807;BMP180;18310;55.586;12.286;2023-02-04T06:21:08;103479.00;;;5.30
34807;BMP180;18310;55.586;12.286;2023-02-04T06:24:11;103482.00;;;5.20
34807;BMP180;18310;55.586;12.286;2023-02-04T06:27:14;103489.00;;;5.20
34807;BMP180;18310;55.586;12.286;2023-02-04T06:30:25;103489.00;;;5.40
34807;BMP180;18310;55.586;12.286;2023-02-04T06:33:28;103497.00;;;5.80
34807;BMP180;18310;55.586;12.286;2023-02-04T06:36:31;103505.00;;;6.00
34807;BMP180;18310;55.586;12.286;2023-02-04T06:39:35;103502.00;;;6.00
34807;BMP180;18310;55.586;12.286;2023-02-04T06:42:38;103517.00;;;6.00
34807;BMP180;18310;55.586;12.286;2023-02-04T06:45:43;103527.00;;;6.10
34807;BMP180;18310;55.586;12.286;2023-02-04T06:48:46;103531.00;;;6.10
34807;BMP180;18310;55.586;12.286;2023-02-04T06:51:50;103548.00;;;6.10
34807;BMP180;18310;55.586;12.286;2023-02-04T06:54:54;103549.00;;;6.10
34807;BMP180;18310;55.586;12.286;2023-02-04T06:57:57;103551.00;;;6.00
34807;BMP180;18310;55.586;12.286;2023-02-04T07:01:02;103572.00;;;5.70
34807;BMP180;18310;55.586;12.286;2023-02-04T07:04:07;103567.00;;;5.60
34807;BMP180;18310;55.586;12.286;2023-02-04T07:07:11;103572.00;;;5.90
34807;BMP180;18310;55.586;12.286;2023-02-04T07:10:15;103585.00;;;5.50
34807;BMP180;18310;55.586;12.286;2023-02-04T07:13:21;103585.00;;;5.50
34807;BMP180;18310;55.586;12.286;2023-02-04T07:16:26;103599.00;;;5.70
34807;BMP180;18310;55.586;12.286;2023-02-04T07:19:30;103598.00;;;5.60
34807;BMP180;18310;55.586;12.286;2023-02-04T07:22:34;103615.00;;;6.00
34807;BMP180;18310;55.586;12.286;2023-02-04T07:25:37;103623.00;;;6.10
34807;BMP180;18310;55.586;12.286;2023-02-04T07:28:41;103624.00;;;6.20
34807;BMP180;18310;55.586;12.286;2023-02-04T07:31:46;103626.00;;;6.20
34807;BMP180;18310;55.586;12.286;2023-02-04T07:34:53;103635.00;;;6.30
34807;BMP180;18310;55.586;12.286;2023-02-04T07:37:57;103640.00;;;6.30
34807;BMP180;18310;55.586;12.286;2023-02-04T07:41:00;103643.00;;;6.30
34807;BMP180;18310;55.586;12.286;2023-02-04T07:44:04;103641.00;;;6.30
34807;BMP180;18310;55.586;12.286;2023-02-04T07:47:09;103648.00;;;6.30
34807;BMP180;18310;55.586;12.286;2023-02-04T07:50:14;103642.00;;;6.10
34807;BMP180;18310;55.586;12.286;2023-02-04T07:53:18;103656.00;;;6.30
34807;BMP180;18310;55.586;12.286;2023-02-04T07:56:21;103667.00;;;6.40
34807;BMP180;18310;55.586;12.286;2023-02-04T07:59:26;103668.00;;;6.50
34807;BMP180;18310;55.586;12.286;2023-02-04T08:02:32;103668.00;;;6.50
34807;BMP180;18310;55.586;12.286;2023-02-04T08:05:38;103672.00;;;6.60
34807;BMP180;18310;55.586;12.286;2023-02-04T08:08:42;103676.00;;;6.70
34807;BMP180;18310;55.586;12.286;2023-02-04T08:11:46;103673.00;;;6.80
34807;BMP180;18310;55.586;12.286;2023-02-04T08:14:52;103686.00;;;6.80
34807;BMP180;18310;55.586;12.286;2023-02-04T08:17:59;103693.00;;;6.90
34807;BMP180;18310;55.586;12.286;2023-02-04T08:21:05;103686.00;;;6.90
34807;BMP180;18310;55.586;12.286;2023-02-04T08:24:08;103688.00;;;7.00
34807;BMP180;18310;55.586;12.286;2023-02-04T08:27:12;103688.00;;;7.00
34807;BMP180;18310;55.586;12.286;2023-02-04T08:30:16;103710.00;;;7.00
34807;BMP180;18310;55.586;12.286;2023-02-04T08:33:21;103720.00;;;7.00
34807;BMP180;18310;55.586;12.286;2023-02-04T08:36:25;103716.00;;;6.80
34807;BMP180;18310;55.586;12.286;2023-02-04T08:39:28;103728.00;;;6.80
34807;BMP180;18310;55.586;12.286;2023-02-04T08:42:32;103735.00;;;6.80
34807;BMP180;18310;55.586;12.286;2023-02-04T08:45:36;103744.00;;;6.70
34807;BMP180;18310;55.586;12.286;2023-02-04T08:48:41;103738.00;;;6.80
34807;BMP180;18310;55.586;12.286;2023-02-04T08:51:44;103730.00;;;6.80
34807;BMP180;18310;55.586;12.286;2023-02-04T08:54:48;103733.00;;;6.90
34807;BMP180;18310;55.586;12.286;2023-02-04T08:57:52;103741.00;;;6.80
34807;BMP180;18310;55.586;12.286;2023-02-04T09:00:55;103732.00;;;6.80
34807;BMP180;18310;55.586;12.286;2023-02-04T09:04:00;103733.00;;;6.70
34807;BMP180;18310;55.586;12.286;2023-02-04T09:07:04;103744.00;;;6.80
34807;BMP180;18310;55.586;12.286;2023-02-04T09:10:08;103732.00;;;7.10
34807;BMP180;18310;55.586;12.286;2023-02-04T09:13:11;103739.00;;;7.20
34807;BMP180;18310;55.586;12.286;2023-02-04T09:16:15;103745.00;;;7.40
34807;BMP180;18310;55.586;12.286;2023-02-04T09:19:20;103746.00;;;7.50
34807;BMP180;18310;55.586;12.286;2023-02-04T09:22:26;103758.00;;;7.60
34807;BMP180;18310;55.586;12.286;2023-02-04T09:25:29;103762.00;;;7.60
34807;BMP180;18310;55.586;12.286;2023-02-04T09:28:34;103767.00;;;7.60
34807;BMP180;18310;55.586;12.286;2023-02-04T09:31:37;103765.00;;;7.70
34807;BMP180;18310;55.586;12.286;2023-02-04T09:34:44;103777.00;;;7.50
34807;BMP180;18310;55.586;12.286;2023-02-04T09:37:48;103778.00;;;7.20
34807;BMP180;18310;55.586;12.286;2023-02-04T09:40:56;103793.00;;;7.30
34807;BMP180;18310;55.586;12.286;2023-02-04T09:44:00;103793.00;;;7.50
34807;BMP180;18310;55.586;12.286;2023-02-04T09:47:05;103795.00;;;7.60
34807;BMP180;18310;55.586;12.286;2023-02-04T09:50:14;103806.00;;;7.70
34807;BMP180;18310;55.586;12.286;2023-02-04T09:53:22;103816.00;;;7.80
34807;BMP180;18310;55.586;12.286;2023-02-04T09:56:25;103812.00;;;7.90
34807;BMP180;18310;55.586;12.286;2023-02-04T09:59:28;103805.00;;;7.90
34807;BMP180;18310;55.586;12.286;2023-02-04T10:02:34;103808.00;;;7.90
34807;BMP180;18310;55.586;12.286;2023-02-04T10:05:38;103808.00;;;7.90
34807;BMP180;18310;55.586;12.286;2023-02-04T10:08:43;103796.00;;;7.90
34807;BMP180;18310;55.586;12.286;2023-02-04T10:11:48;103811.00;;;7.80
34807;BMP180;18310;55.586;12.286;2023-02-04T10:14:51;103804.00;;;7.50
34807;BMP180;18310;55.586;12.286;2023-02-04T10:18:02;103803.00;;;7.30
34807;BMP180;18310;55.586;12.286;2023-02-04T10:21:16;103796.00;;;7.40
34807;BMP180;18310;55.586;12.286;2023-02-04T10:24:23;103795.00;;;7.80
34807;BMP180;18310;55.586;12.286;2023-02-04T10:27:29;103802.00;;;8.00
34807;BMP180;18310;55.586;12.286;2023-02-04T10:30:41;103808.00;;;8.10
34807;BMP180;18310;55.586;12.286;2023-02-04T10:33:45;103823.00;;;8.00
34807;BMP180;18310;55.586;12.286;2023-02-04T10:36:52;103819.00;;;7.70
34807;BMP180;18310;55.586;12.286;2023-02-04T10:39:56;103816.00;;;7.50
34807;BMP180;18310;55.586;12.286;2023-02-04T10:43:07;103810.00;;;7.50
34807;BMP180;18310;55.586;12.286;2023-02-04T10:46:18;103810.00;;;7.60
34807;BMP180;18310;55.586;12.286;2023-02-04T10:49:23;103819.00;;;8.10
34807;BMP180;18310;55.586;12.286;2023-02-04T10:52:34;103819.00;;;8.30
34807;BMP180;18310;55.586;12.286;2023-02-04T10:55:38;103830.00;;;8.40
34807;BMP180;18310;55.586;12.286;2023-02-04T10:58:44;103834.00;;;8.50
34807;BMP180;18310;55.586;12.286;2023-02-04T11:01:49;103833.00;;;8.60
34807;BMP180;18310;55.586;12.286;2023-02-04T11:04:53;103834.00;;;8.70
34807;BMP180;18310;55.586;12.286;2023-02-04T11:08:00;103835.00;;;8.80
34807;BMP180;18310;55.586;12.286;2023-02-04T11:11:17;103839.00;;;8.90
34807;BMP180;18310;55.586;12.286;2023-02-04T11:14:27;103843.00;;;9.00
34807;BMP180;18310;55.586;12.286;2023-02-04T11:17:35;103848.00;;;9.00
34807;BMP180;18310;55.586;12.286;2023-02-04T11:20:40;103840.00;;;9.10
34807;BMP180;18310;55.586;12.286;2023-02-04T11:23:50;103855.00;;;9.10
34807;BMP180;18310;55.586;12.286;2023-02-04T11:27:23;103854.00;;;9.10
34807;BMP180;18310;55.586;12.286;2023-02-04T11:30:36;103854.00;;;9.10
34807;BMP180;18310;55.586;12.286;2023-02-04T11:34:30;103858.00;;;9.20
34807;BMP180;18310;55.586;12.286;2023-02-04T11:37:48;103861.00;;;9.20
34807;BMP180;18310;55.586;12.286;2023-02-04T11:41:29;103873.00;;;9.20
34807;BMP180;18310;55.586;12.286;2023-02-04T11:44:54;103860.00;;;9.30
34807;BMP180;18310;55.586;12.286;2023-02-04T11:48:19;103860.00;;;9.40
34807;BMP180;18310;55.586;12.286;2023-02-04T11:51:41;103868.00;;;9.40
34807;BMP180;18310;55.586;12.286;2023-02-04T11:54:59;103860.00;;;9.40
34807;BMP180;18310;55.586;12.286;2023-02-04T11:58:23;103866.00;;;9.50
34807;BMP180;18310;55.586;12.286;2023-02-04T12:01:40;103871.00;;;9.50
34807;BMP180;18310;55.586;12.286;2023-02-04T12:05:08;103871.00;;;9.50
34807;BMP180;18310;55.586;12.286;2023-02-04T12:08:33;103876.00;;;9.50
34807;BMP180;18310;55.586;12.286;2023-02-04T12:11:55;103880.00;;;9.60
34807;BMP180;18310;55.586;12.286;2023-02-04T12:15:17;103883.00;;;9.60
34807;BMP180;18310;55.586;12.286;2023-02-04T12:18:28;103898.00;;;9.60
34807;BMP180;18310;55.586;12.286;2023-02-04T12:21:32;103896.00;;;9.60
34807;BMP180;18310;55.586;12.286;2023-02-04T12:24:35;103885.00;;;9.60
34807;BMP180;18310;55.586;12.286;2023-02-04T12:27:38;103882.00;;;9.60
34807;BMP180;18310;55.586;12.286;2023-02-04T12:30:43;103878.00;;;9.60
34807;BMP180;18310;55.586;12.286;2023-02-04T12:33:46;103871.00;;;9.60
34807;BMP180;18310;55.586;12.286;2023-02-04T12:36:50;103870.00;;;9.60
34807;BMP180;18310;55.586;12.286;2023-02-04T12:39:53;103871.00;;;9.30
34807;BMP180;18310;55.586;12.286;2023-02-04T12:42:57;103870.00;;;9.60
34807;BMP180;18310;55.586;12.286;2023-02-04T12:46:01;103878.00;;;9.70
34807;BMP180;18310;55.586;12.286;2023-02-04T12:49:08;103872.00;;;9.70
34807;BMP180;18310;55.586;12.286;2023-02-04T12:52:16;103883.00;;;9.80
34807;BMP180;18310;55.586;12.286;2023-02-04T12:55:24;103890.00;;;9.80
34807;BMP180;18310;55.586;12.286;2023-02-04T12:58:29;103877.00;;;9.80
34807;BMP180;18310;55.586;12.286;2023-02-04T13:01:35;103903.00;;;9.90
34807;BMP180;18310;55.586;12.286;2023-02-04T13:04:39;103900.00;;;9.90
34807;BMP180;18310;55.586;12.286;2023-02-04T13:07:45;103896.00;;;9.90
34807;BMP180;18310;55.586;12.286;2023-02-04T13:10:50;103903.00;;;10.00
34807;BMP180;18310;55.586;12.286;2023-02-04T13:13:54;103908.00;;;10.00
34807;BMP180;18310;55.586;12.286;2023-02-04T13:16:59;103900.00;;;9.90
34807;BMP180;18310;55.586;12.286;2023-02-04T13:20:03;103903.00;;;10.00
34807;BMP180;18310;55.586;12.286;2023-02-04T13:23:07;103892.00;;;10.00
34807;BMP180;18310;55.586;12.286;2023-02-04T13:26:11;103898.00;;;10.00
34807;BMP180;18310;55.586;12.286;2023-02-04T13:29:15;103894.00;;;10.00
34807;BMP180;18310;55.586;12.286;2023-02-04T13:32:20;103901.00;;;10.00
34807;BMP180;18310;55.586;12.286;2023-02-04T13:35:27;103889.00;;;10.00
34807;BMP180;18310;55.586;12.286;2023-02-04T13:38:32;103879.00;;;10.00
34807;BMP180;18310;55.586;12.286;2023-02-04T13:41:36;103890.00;;;10.00
34807;BMP180;18310;55.586;12.286;2023-02-04T13:44:40;103879.00;;;10.00
34807;BMP180;18310;55.586;12.286;2023-02-04T13:47:44;103879.00;;;10.00
34807;BMP180;18310;55.586;12.286;2023-02-04T13:50:49;103884.00;;;9.90
34807;BMP180;18310;55.586;12.286;2023-02-04T13:53:53;103877.00;;;9.60
34807;BMP180;18310;55.586;12.286;2023-02-04T13:56:56;103882.00;;;9.80
34807;BMP180;18310;55.586;12.286;2023-02-04T13:59:59;103894.00;;;9.90
34807;BMP180;18310;55.586;12.286;2023-02-04T14:03:04;103891.00;;;9.90
34807;BMP180;18310;55.586;12.286;2023-02-04T14:06:07;103901.00;;;9.90
34807;BMP180;18310;55.586;12.286;2023-02-04T14:09:11;103908.00;;;9.90
34807;BMP180;18310;55.586;12.286;2023-02-04T14:12:15;103915.00;;;9.90
34807;BMP180;18310;55.586;12.286;2023-02-04T14:15:18;103908.00;;;9.90
34807;BMP180;18310;55.586;12.286;2023-02-04T14:18:23;103903.00;;;10.00
34807;BMP180;18310;55.586;12.286;2023-02-04T14:21:26;103900.00;;;10.00
34807;BMP180;18310;55.586;12.286;2023-02-04T14:24:29;103904.00;;;10.00
34807;BMP180;18310;55.586;12.286;2023-02-04T14:27:33;103908.00;;;10.00
34807;BMP180;18310;55.586;12.286;2023-02-04T14:30:37;103901.00;;;10.00
34807;BMP180;18310;55.586;12.286;2023-02-04T14:33:41;103903.00;;;10.00
34807;BMP180;18310;55.586;12.286;2023-02-04T14:36:44;103905.00;;;9.90
34807;BMP180;18310;55.586;12.286;2023-02-04T14:39:47;103910.00;;;10.00
34807;BMP180;18310;55.586;12.286;2023-02-04T14:42:50;103924.00;;;10.00
34807;BMP180;18310;55.586;12.286;2023-02-04T14:45:54;103922.00;;;9.90
34807;BMP180;18310;55.586;12.286;2023-02-04T14:48:59;103932.00;;;9.90
34807;BMP180;18310;55.586;12.286;2023-02-04T14:52:02;103928.00;;;9.70
34807;BMP180;18310;55.586;12.286;2023-02-04T14:55:07;103938.00;;;9.30
34807;BMP180;18310;55.586;12.286;2023-02-04T14:58:11;103936.00;;;9.30
34807;BMP180;18310;55.586;12.286;2023-02-04T15:01:14;103939.00;;;9.50
34807;BMP180;18310;55.586;12.286;2023-02-04T15:04:19;103942.00;;;9.50
34807;BMP180;18310;55.586;12.286;2023-02-04T15:07:23;103923.00;;;9.20
34807;BMP180;18310;55.586;12.286;2023-02-04T15:10:26;103932.00;;;9.20
34807;BMP180;18310;55.586;12.286;2023-02-04T15:13:31;103936.00;;;9.10
34807;BMP180;18310;55.586;12.286;2023-02-04T15:16:34;103942.00;;;9.20
34807;BMP180;18310;55.586;12.286;2023-02-04T15:19:39;103928.00;;;8.90
34807;BMP180;18310;55.586;12.286;2023-02-04T15:22:43;103936.00;;;8.90
34807;BMP180;18310;55.586;12.286;2023-02-04T15:25:49;103939.00;;;9.10
34807;BMP180;18310;55.586;12.286;2023-02-04T15:28:59;103929.00;;;8.90
34807;BMP180;18310;55.586;12.286;2023-02-04T15:32:04;103927.00;;;8.90
34807;BMP180;18310;55.586;12.286;2023-02-04T15:35:09;103941.00;;;8.70
34807;BMP180;18310;55.586;12.286;2023-02-04T15:38:12;103945.00;;;8.50
34807;BMP180;18310;55.586;12.286;2023-02-04T15:41:15;103941.00;;;8.40
34807;BMP180;18310;55.586;12.286;2023-02-04T15:44:19;103950.00;;;8.40
34807;BMP180;18310;55.586;12.286;2023-02-04T15:47:23;103952.00;;;8.70
34807;BMP180;18310;55.586;12.286;2023-02-04T15:50:27;103954.00;;;8.80
34807;BMP180;18310;55.586;12.286;2023-02-04T15:53:33;103950.00;;;8.60
34807;BMP180;18310;55.586;12.286;2023-02-04T15:56:37;103947.00;;;8.30
34807;BMP180;18310;55.586;12.286;2023-02-04T15:59:41;103954.00;;;8.20
34807;BMP180;18310;55.586;12.286;2023-02-04T16:02:44;103943.00;;;8.10
34807;BMP180;18310;55.586;12.286;2023-02-04T16:05:50;103939.00;;;8.00
34807;BMP180;18310;55.586;12.286;2023-02-04T16:08:54;103936.00;;;7.90
34807;BMP180;18310;55.586;12.286;2023-02-04T16:11:57;103956.00;;;7.80
34807;BMP180;18310;55.586;12.286;2023-02-04T16:15:01;103964.00;;;7.80
34807;BMP180;18310;55.586;12.286;2023-02-04T16:18:04;103952.00;;;7.70
34807;BMP180;18310;55.586;12.286;2023-02-04T16:21:09;103944.00;;;7.60
34807;BMP180;18310;55.586;12.286;2023-02-04T16:24:13;103953.00;;;7.40
34807;BMP180;18310;55.586;12.286;2023-02-04T16:27:25;103956.00;;;7.40
34807;BMP180;18310;55.586;12.286;2023-02-04T16:30:29;103958.00;;;7.30
34807;BMP180;18310;55.586;12.286;2023-02-04T16:33:32;103958.00;;;7.20
34807;BMP180;18310;55.586;12.286;2023-02-04T16:36:39;103960.00;;;7.20
34807;BMP180;18310;55.586;12.286;2023-02-04T16:39:43;103963.00;;;7.10
34807;BMP180;18310;55.586;12.286;2023-02-04T16:42:48;103967.00;;;7.00
34807;BMP180;18310;55.586;12.286;2023-02-04T16:45:53;103977.00;;;6.90
34807;BMP180;18310;55.586;12.286;2023-02-04T16:48:57;103974.00;;;6.80
34807;BMP180;18310;55.586;12.286;2023-02-04T16:52:02;103980.00;;;6.70
34807;BMP180;18310;55.586;12.286;2023-02-04T16:55:07;103963.00;;;6.60
34807;BMP180;18310;55.586;12.286;2023-02-04T16:58:11;103958.00;;;6.50
34807;BMP180;18310;55.586;12.286;2023-02-04T17:01:15;103947.00;;;6.50
34807;BMP180;18310;55.586;12.286;2023-02-04T17:04:20;103946.00;;;6.40
34807;BMP180;18310;55.586;12.286;2023-02-04T17:07:26;103958.00;;;6.30
34807;BMP180;18310;55.586;12.286;2023-02-04T17:10:30;103961.00;;;6.30
34807;BMP180;18310;55.586;12.286;2023-02-04T17:13:51;103964.00;;;6.30
34807;BMP180;18310;55.586;12.286;2023-02-04T17:16:55;103972.00;;;6.20
34807;BMP180;18310;55.586;12.286;2023-02-04T17:19:58;103964.00;;;6.20
34807;BMP180;18310;55.586;12.286;2023-02-04T17:23:03;103968.00;;;6.40
34807;BMP180;18310;55.586;12.286;2023-02-04T17:26:06;103966.00;;;6.50
34807;BMP180;18310;55.586;12.286;2023-02-04T17:29:11;103971.00;;;6.50
34807;BMP180;18310;55.586;12.286;2023-02-04T17:32:14;103963.00;;;6.40
34807;BMP180;18310;55.586;12.286;2023-02-04T17:35:18;103965.00;;;6.40